sensor_id;sensor_type;location;lat;lon;timestamp;P1;durP1;ratioP1;P2;durP2;ratioP2
5149;SDS011;2593;52.466;13.436;2023-02-21T00:00:03;13.43;;;9.00;;
5149;SDS011;2593;52.466;13.436;2023-02-21T00:02:48;9.53;;;6.40;;
5149;SDS011;2593;52.466;13.436;2023-02-21T00:05:32;6.33;;;5.70;;
5149;SDS011;2593;52.466;13.436;2023-02-21T00:08:16;8.03;;;6.23;;
5149;SDS011;2593;52.466;13.436;2023-02-21T00:11:01;6.60;;;5.87;;
5149;SDS011;2593;52.466;13.436;2023-02-21T00:13:45;7.40;;;6.03;;
5149;SDS011;2593;52.466;13.436;2023-02-21T00:16:29;11.03;;;7.20;;
5149;SDS011;2593;52.466;13.436;2023-02-21T00:19:14;11.70;;;8.10;;
5149;SDS011;2593;52.466;13.436;2023-02-21T00:21:59;8.70;;;6.90;;
5149;SDS011;2593;52.466;13.436;2023-02-21T00:24:43;8.50;;;6.93;;
5149;SDS011;2593;52.466;13.436;2023-02-21T00:27:27;8.57;;;6.50;;
5149;SDS011;2593;52.466;13.436;2023-02-21T00:30:13;8.47;;;6.93;;
5149;SDS011;2593;52.466;13.436;2023-02-21T00:32:57;9.53;;;7.30;;
5149;SDS011;2593;52.466;13.436;2023-02-21T00:35:41;10.33;;;7.20;;
5149;SDS011;2593;52.466;13.436;2023-02-21T00:38:26;7.73;;;6.07;;
5149;SDS011;2593;52.466;13.436;2023-02-21T00:41:10;9.83;;;6.50;;
5149;SDS011;2593;52.466;13.436;2023-02-21T00:43:54;9.47;;;6.60;;
5149;SDS011;2593;52.466;13.436;2023-02-21T00:46:38;7.93;;;6.23;;
5149;SDS011;2593;52.466;13.436;2023-02-21T00:49:23;11.50;;;7.63;;
5149;SDS011;2593;52.466;13.436;2023-02-21T00:52:07;9.67;;;7.50;;
5149;SDS011;2593;52.466;13.436;2023-02-21T00:54:51;11.30;;;8.90;;
5149;SDS011;2593;52.466;13.436;2023-02-21T00:57:35;10.83;;;7.60;;
5149;SDS011;2593;52.466;13.436;2023-02-21T01:00:21;12.50;;;7.63;;
5149;SDS011;2593;52.466;13.436;2023-02-21T01:03:07;12.83;;;9.20;;
5149;SDS011;2593;52.466;13.436;2023-02-21T01:05:52;27.20;;;13.43;;
5149;SDS011;2593;52.466;13.436;2023-02-21T01:08:43;19.43;;;11.20;;
5149;SDS011;2593;52.466;13.436;2023-02-21T01:11:29;11.53;;;8.30;;
5149;SDS011;2593;52.466;13.436;2023-02-21T01:14:13;12.40;;;8.70;;
5149;SDS011;2593;52.466;13.436;2023-02-21T01:16:57;13.90;;;9.63;;
5149;SDS011;2593;52.466;13.436;2023-02-21T01:19:42;15.60;;;9.77;;
5149;SDS011;2593;52.466;13.436;2023-02-21T01:22:26;14.03;;;8.67;;
5149;SDS011;2593;52.466;13.436;2023-02-21T01:25:11;11.50;;;8.10;;
5149;SDS011;2593;52.466;13.436;2023-02-21T01:27:55;12.77;;;9.33;;
5149;SDS011;2593;52.466;13.436;2023-02-21T01:30:40;19.60;;;11.63;;
5149;SDS011;2593;52.466;13.436;2023-02-21T01:33:24;23.23;;;12.80;;
5149;SDS011;2593;52.466;13.436;2023-02-21T01:36:08;18.30;;;10.77;;
5149;SDS011;2593;52.466;13.436;2023-02-21T01:38:53;23.40;;;11.87;;
5149;SDS011;2593;52.466;13.436;2023-02-21T01:41:37;17.07;;;11.67;;
5149;SDS011;2593;52.466;13.436;2023-02-21T01:47:22;16.10;;;9.73;;
5149;SDS011;2593;52.466;13.436;2023-02-21T01:50:10;16.30;;;8.70;;
5149;SDS011;2593;52.466;13.436;2023-02-21T01:52:59;12.97;;;8.17;;
5149;SDS011;2593;52.466;13.436;2023-02-21T01:55:46;15.23;;;9.57;;
5149;SDS011;2593;52.466;13.436;2023-02-21T01:58:31;13.50;;;9.00;;
5149;SDS011;2593;52.466;13.436;2023-02-21T02:01:19;12.80;;;8.70;;
5149;SDS011;2593;52.466;13.436;2023-02-21T02:04:09;14.83;;;9.47;;
5149;SDS011;2593;52.466;13.436;2023-02-21T02:06:54;13.70;;;9.00;;
5149;SDS011;2593;52.466;13.436;2023-02-21T02:09:38;12.90;;;8.20;;
5149;SDS011;2593;52.466;13.436;2023-02-21T02:15:11;13.17;;;8.87;;
5149;SDS011;2593;52.466;13.436;2023-02-21T02:20:44;22.30;;;9.57;;
5149;SDS011;2593;52.466;13.436;2023-02-21T02:35:03;18.27;;;8.70;;
5149;SDS011;2593;52.466;13.436;2023-02-21T02:37:48;13.20;;;9.10;;
5149;SDS011;2593;52.466;13.436;2023-02-21T02:40:27;20.73;;;9.60;;
5149;SDS011;2593;52.466;13.436;2023-02-21T02:48:22;13.63;;;9.50;;
5149;SDS011;2593;52.466;13.436;2023-02-21T02:51:12;11.73;;;8.57;;
5149;SDS011;2593;52.466;13.436;2023-02-21T02:53:45;15.37;;;9.87;;
5149;SDS011;2593;52.466;13.436;2023-02-21T02:56:12;15.63;;;10.47;;
5149;SDS011;2593;52.466;13.436;2023-02-21T03:04:00;14.90;;;10.20;;
5149;SDS011;2593;52.466;13.436;2023-02-21T03:18:23;19.10;;;9.50;;
5149;SDS011;2593;52.466;13.436;2023-02-21T03:20:55;14.83;;;10.70;;
5149;SDS011;2593;52.466;13.436;2023-02-21T03:23:24;21.40;;;10.63;;
5149;SDS011;2593;52.466;13.436;2023-02-21T03:25:57;13.50;;;9.43;;
5149;SDS011;2593;52.466;13.436;2023-02-21T03:28:26;13.10;;;8.80;;
5149;SDS011;2593;52.466;13.436;2023-02-21T03:30:53;13.17;;;9.60;;
5149;SDS011;2593;52.466;13.436;2023-02-21T03:33:22;12.07;;;8.30;;
5149;SDS011;2593;52.466;13.436;2023-02-21T03:35:48;17.30;;;10.50;;
5149;SDS011;2593;52.466;13.436;2023-02-21T03:38:14;14.10;;;9.40;;
5149;SDS011;2593;52.466;13.436;2023-02-21T03:40:39;15.50;;;8.90;;
5149;SDS011;2593;52.466;13.436;2023-02-21T03:43:05;15.80;;;9.50;;
5149;SDS011;2593;52.466;13.436;2023-02-21T03:45:32;15.57;;;9.93;;
5149;SDS011;2593;52.466;13.436;2023-02-21T03:47:58;14.93;;;9.30;;
5149;SDS011;2593;52.466;13.436;2023-02-21T03:50:23;13.47;;;9.30;;
5149;SDS011;2593;52.466;13.436;2023-02-21T03:52:49;15.50;;;9.10;;
5149;SDS011;2593;52.466;13.436;2023-02-21T03:55:15;12.63;;;9.57;;
5149;SDS011;2593;52.466;13.436;2023-02-21T03:57:41;14.77;;;9.70;;
5149;SDS011;2593;52.466;13.436;2023-02-21T04:00:07;14.30;;;9.20;;
5149;SDS011;2593;52.466;13.436;2023-02-21T04:02:34;13.33;;;9.93;;
5149;SDS011;2593;52.466;13.436;2023-02-21T04:04:59;17.33;;;10.27;;
5149;SDS011;2593;52.466;13.436;2023-02-21T04:07:25;16.30;;;9.17;;
5149;SDS011;2593;52.466;13.436;2023-02-21T04:09:51;15.87;;;10.40;;
5149;SDS011;2593;52.466;13.436;2023-02-21T04:12:16;22.57;;;11.23;;
5149;SDS011;2593;52.466;13.436;2023-02-21T04:14:43;14.43;;;9.43;;
5149;SDS011;2593;52.466;13.436;2023-02-21T04:17:08;14.27;;;9.60;;
5149;SDS011;2593;52.466;13.436;2023-02-21T04:19:34;15.07;;;8.97;;
5149;SDS011;2593;52.466;13.436;2023-02-21T04:22:00;14.40;;;9.33;;
5149;SDS011;2593;52.466;13.436;2023-02-21T04:24:25;15.70;;;10.17;;
5149;SDS011;2593;52.466;13.436;2023-02-21T04:26:51;13.40;;;8.70;;
5149;SDS011;2593;52.466;13.436;2023-02-21T04:29:16;19.33;;;10.63;;
5149;SDS011;2593;52.466;13.436;2023-02-21T04:31:42;16.63;;;10.07;;
5149;SDS011;2593;52.466;13.436;2023-02-21T04:34:08;13.60;;;9.50;;
5149;SDS011;2593;52.466;13.436;2023-02-21T04:36:33;15.33;;;10.43;;
5149;SDS011;2593;52.466;13.436;2023-02-21T04:39:01;16.23;;;10.60;;
5149;SDS011;2593;52.466;13.436;2023-02-21T04:41:27;17.93;;;11.00;;
5149;SDS011;2593;52.466;13.436;2023-02-21T04:43:52;17.07;;;9.70;;
5149;SDS011;2593;52.466;13.436;2023-02-21T04:46:18;14.80;;;10.00;;
5149;SDS011;2593;52.466;13.436;2023-02-21T04:48:44;16.00;;;11.03;;
5149;SDS011;2593;52.466;13.436;2023-02-21T04:51:12;14.10;;;9.63;;
5149;SDS011;2593;52.466;13.436;2023-02-21T04:53:38;17.20;;;11.27;;
5149;SDS011;2593;52.466;13.436;2023-02-21T04:56:04;19.33;;;11.97;;
5149;SDS011;2593;52.466;13.436;2023-02-21T04:58:30;23.27;;;12.10;;
5149;SDS011;2593;52.466;13.436;2023-02-21T05:00:56;19.23;;;11.90;;
5149;SDS011;2593;52.466;13.436;2023-02-21T05:03:21;20.70;;;11.63;;
5149;SDS011;2593;52.466;13.436;2023-02-21T05:05:48;17.33;;;11.80;;
5149;SDS011;2593;52.466;13.436;2023-02-21T05:08:14;18.63;;;11.70;;
5149;SDS011;2593;52.466;13.436;2023-02-21T05:10:40;21.93;;;12.80;;
5149;SDS011;2593;52.466;13.436;2023-02-21T05:13:06;21.37;;;12.63;;
5149;SDS011;2593;52.466;13.436;2023-02-21T05:15:31;19.37;;;11.97;;
5149;SDS011;2593;52.466;13.436;2023-02-21T05:17:57;18.47;;;10.97;;
5149;SDS011;2593;52.466;13.436;2023-02-21T05:20:22;19.50;;;11.83;;
5149;SDS011;2593;52.466;13.436;2023-02-21T05:22:48;19.90;;;12.57;;
5149;SDS011;2593;52.466;13.436;2023-02-21T05:25:14;20.60;;;12.30;;
5149;SDS011;2593;52.466;13.436;2023-02-21T05:27:42;25.90;;;12.30;;
5149;SDS011;2593;52.466;13.436;2023-02-21T05:30:08;18.33;;;11.40;;
5149;SDS011;2593;52.466;13.436;2023-02-21T05:32:34;21.70;;;12.23;;
5149;SDS011;2593;52.466;13.436;2023-02-21T05:34:59;17.47;;;11.97;;
5149;SDS011;2593;52.466;13.436;2023-02-21T05:37:25;26.17;;;11.73;;
5149;SDS011;2593;52.466;13.436;2023-02-21T05:39:51;20.27;;;11.73;;
5149;SDS011;2593;52.466;13.436;2023-02-21T05:42:16;16.83;;;10.67;;
5149;SDS011;2593;52.466;13.436;2023-02-21T05:44:43;20.60;;;11.17;;
5149;SDS011;2593;52.466;13.436;2023-02-21T05:47:09;24.13;;;10.90;;
5149;SDS011;2593;52.466;13.436;2023-02-21T05:49:35;20.67;;;12.33;;
5149;SDS011;2593;52.466;13.436;2023-02-21T05:52:01;18.47;;;11.50;;
5149;SDS011;2593;52.466;13.436;2023-02-21T05:54:29;20.23;;;12.70;;
5149;SDS011;2593;52.466;13.436;2023-02-21T05:56:54;25.17;;;12.33;;
5149;SDS011;2593;52.466;13.436;2023-02-21T05:59:20;20.43;;;11.47;;
5149;SDS011;2593;52.466;13.436;2023-02-21T06:01:46;21.43;;;11.63;;
5149;SDS011;2593;52.466;13.436;2023-02-21T06:04:12;20.47;;;12.20;;
5149;SDS011;2593;52.466;13.436;2023-02-21T06:06:38;21.60;;;12.10;;
5149;SDS011;2593;52.466;13.436;2023-02-21T06:09:04;23.13;;;12.57;;
5149;SDS011;2593;52.466;13.436;2023-02-21T06:11:31;21.00;;;12.10;;
5149;SDS011;2593;52.466;13.436;2023-02-21T06:13:59;22.83;;;11.40;;
5149;SDS011;2593;52.466;13.436;2023-02-21T06:16:35;24.70;;;13.10;;
5149;SDS011;2593;52.466;13.436;2023-02-21T06:19:03;20.13;;;11.13;;
5149;SDS011;2593;52.466;13.436;2023-02-21T06:21:30;22.13;;;11.00;;
5149;SDS011;2593;52.466;13.436;2023-02-21T06:23:55;18.43;;;10.40;;
5149;SDS011;2593;52.466;13.436;2023-02-21T06:26:21;20.70;;;10.80;;
5149;SDS011;2593;52.466;13.436;2023-02-21T06:28:47;20.33;;;11.00;;
5149;SDS011;2593;52.466;13.436;2023-02-21T06:31:13;17.57;;;10.43;;
5149;SDS011;2593;52.466;13.436;2023-02-21T06:33:40;17.87;;;9.80;;
5149;SDS011;2593;52.466;13.436;2023-02-21T06:36:06;20.00;;;9.80;;
5149;SDS011;2593;52.466;13.436;2023-02-21T06:38:36;22.07;;;11.20;;
5149;SDS011;2593;52.466;13.436;2023-02-21T06:41:07;17.23;;;10.00;;
5149;SDS011;2593;52.466;13.436;2023-02-21T06:43:33;16.10;;;9.40;;
5149;SDS011;2593;52.466;13.436;2023-02-21T06:46:00;18.37;;;10.50;;
5149;SDS011;2593;52.466;13.436;2023-02-21T06:48:26;18.67;;;9.83;;
5149;SDS011;2593;52.466;13.436;2023-02-21T06:50:52;13.30;;;7.40;;
5149;SDS011;2593;52.466;13.436;2023-02-21T06:53:18;14.07;;;7.83;;
5149;SDS011;2593;52.466;13.436;2023-02-21T06:55:44;14.47;;;9.07;;
5149;SDS011;2593;52.466;13.436;2023-02-21T06:58:10;15.53;;;8.27;;
5149;SDS011;2593;52.466;13.436;2023-02-21T07:00:35;17.30;;;8.73;;
5149;SDS011;2593;52.466;13.436;2023-02-21T07:03:01;17.73;;;8.20;;
5149;SDS011;2593;52.466;13.436;2023-02-21T07:05:27;18.30;;;10.53;;
5149;SDS011;2593;52.466;13.436;2023-02-21T07:07:53;9.97;;;6.70;;
5149;SDS011;2593;52.466;13.436;2023-02-21T07:10:19;11.87;;;7.50;;
5149;SDS011;2593;52.466;13.436;2023-02-21T07:12:44;12.23;;;7.10;;
5149;SDS011;2593;52.466;13.436;2023-02-21T07:15:10;10.03;;;6.17;;
5149;SDS011;2593;52.466;13.436;2023-02-21T07:17:36;13.47;;;7.13;;
5149;SDS011;2593;52.466;13.436;2023-02-21T07:20:02;15.03;;;8.00;;
5149;SDS011;2593;52.466;13.436;2023-02-21T07:22:28;11.50;;;6.67;;
5149;SDS011;2593;52.466;13.436;2023-02-21T07:24:55;9.17;;;5.43;;
5149;SDS011;2593;52.466;13.436;2023-02-21T07:27:21;9.73;;;6.27;;
5149;SDS011;2593;52.466;13.436;2023-02-21T07:29:47;12.50;;;6.90;;
5149;SDS011;2593;52.466;13.436;2023-02-21T07:32:14;13.77;;;6.70;;
5149;SDS011;2593;52.466;13.436;2023-02-21T07:34:41;16.73;;;10.30;;
5149;SDS011;2593;52.466;13.436;2023-02-21T07:37:07;31.63;;;15.50;;
5149;SDS011;2593;52.466;13.436;2023-02-21T07:39:33;31.07;;;13.43;;
5149;SDS011;2593;52.466;13.436;2023-02-21T07:41:59;38.70;;;14.53;;
5149;SDS011;2593;52.466;13.436;2023-02-21T07:44:24;32.57;;;13.17;;
5149;SDS011;2593;52.466;13.436;2023-02-21T07:46:50;35.47;;;15.33;;
5149;SDS011;2593;52.466;13.436;2023-02-21T07:49:16;32.17;;;15.70;;
5149;SDS011;2593;52.466;13.436;2023-02-21T07:51:41;55.63;;;25.77;;
5149;SDS011;2593;52.466;13.436;2023-02-21T07:54:07;213.67;;;73.90;;
5149;SDS011;2593;52.466;13.436;2023-02-21T07:56:33;284.10;;;91.97;;
5149;SDS011;2593;52.466;13.436;2023-02-21T07:58:58;230.33;;;66.53;;
5149;SDS011;2593;52.466;13.436;2023-02-21T08:01:24;201.93;;;63.77;;
5149;SDS011;2593;52.466;13.436;2023-02-21T08:03:50;79.70;;;31.30;;
5149;SDS011;2593;52.466;13.436;2023-02-21T08:06:16;18.40;;;10.63;;
5149;SDS011;2593;52.466;13.436;2023-02-21T08:08:43;35.43;;;17.20;;
5149;SDS011;2593;52.466;13.436;2023-02-21T08:11:09;21.10;;;12.27;;
5149;SDS011;2593;52.466;13.436;2023-02-21T08:13:35;13.60;;;7.40;;
5149;SDS011;2593;52.466;13.436;2023-02-21T08:16:01;12.97;;;7.60;;
5149;SDS011;2593;52.466;13.436;2023-02-21T08:18:27;19.70;;;8.00;;
5149;SDS011;2593;52.466;13.436;2023-02-21T08:20:53;9.27;;;5.07;;
5149;SDS011;2593;52.466;13.436;2023-02-21T08:23:20;13.73;;;5.90;;
5149;SDS011;2593;52.466;13.436;2023-02-21T08:25:46;13.30;;;4.90;;
5149;SDS011;2593;52.466;13.436;2023-02-21T08:28:12;5.30;;;3.10;;
5149;SDS011;2593;52.466;13.436;2023-02-21T08:30:39;7.87;;;2.73;;
5149;SDS011;2593;52.466;13.436;2023-02-21T08:33:04;5.40;;;2.70;;
5149;SDS011;2593;52.466;13.436;2023-02-21T08:35:30;11.63;;;1.80;;
5149;SDS011;2593;52.466;13.436;2023-02-21T08:37:56;7.57;;;3.20;;
5149;SDS011;2593;52.466;13.436;2023-02-21T08:40:26;2.30;;;2.10;;
5149;SDS011;2593;52.466;13.436;2023-02-21T08:42:52;4.03;;;3.63;;
5149;SDS011;2593;52.466;13.436;2023-02-21T08:45:19;6.50;;;3.83;;
5149;SDS011;2593;52.466;13.436;2023-02-21T08:47:46;2.43;;;2.20;;
5149;SDS011;2593;52.466;13.436;2023-02-21T08:50:12;1.43;;;1.33;;
5149;SDS011;2593;52.466;13.436;2023-02-21T08:52:38;4.17;;;2.00;;
5149;SDS011;2593;52.466;13.436;2023-02-21T08:55:04;2.30;;;1.40;;
5149;SDS011;2593;52.466;13.436;2023-02-21T08:57:30;1.63;;;1.33;;
5149;SDS011;2593;52.466;13.436;2023-02-21T08:59:58;3.17;;;1.73;;
5149;SDS011;2593;52.466;13.436;2023-02-21T09:02:24;13.67;;;6.50;;
5149;SDS011;2593;52.466;13.436;2023-02-21T09:04:51;36.97;;;13.50;;
5149;SDS011;2593;52.466;13.436;2023-02-21T09:07:17;12.23;;;5.30;;
5149;SDS011;2593;52.466;13.436;2023-02-21T09:09:44;12.30;;;7.90;;
5149;SDS011;2593;52.466;13.436;2023-02-21T09:12:10;4.20;;;3.37;;
5149;SDS011;2593;52.466;13.436;2023-02-21T09:14:36;1.43;;;1.00;;
5149;SDS011;2593;52.466;13.436;2023-02-21T09:17:04;1.63;;;1.20;;
5149;SDS011;2593;52.466;13.436;2023-02-21T09:19:30;2.33;;;1.60;;
5149;SDS011;2593;52.466;13.436;2023-02-21T09:21:56;6.50;;;1.27;;
5149;SDS011;2593;52.466;13.436;2023-02-21T09:24:23;1.40;;;1.30;;
5149;SDS011;2593;52.466;13.436;2023-02-21T09:26:58;6.90;;;1.40;;
5149;SDS011;2593;52.466;13.436;2023-02-21T09:29:27;2.37;;;1.90;;
5149;SDS011;2593;52.466;13.436;2023-02-21T09:31:56;2.60;;;1.60;;
5149;SDS011;2593;52.466;13.436;2023-02-21T09:34:22;3.37;;;1.53;;
5149;SDS011;2593;52.466;13.436;2023-02-21T09:36:48;2.50;;;2.07;;
5149;SDS011;2593;52.466;13.436;2023-02-21T09:39:15;1.40;;;1.00;;
5149;SDS011;2593;52.466;13.436;2023-02-21T09:41:41;4.47;;;1.37;;
5149;SDS011;2593;52.466;13.436;2023-02-21T09:44:17;1.90;;;1.67;;
5149;SDS011;2593;52.466;13.436;2023-02-21T09:46:50;2.13;;;1.47;;
5149;SDS011;2593;52.466;13.436;2023-02-21T09:49:26;1.70;;;1.60;;
5149;SDS011;2593;52.466;13.436;2023-02-21T09:51:55;2.60;;;1.67;;
5149;SDS011;2593;52.466;13.436;2023-02-21T09:54:34;5.03;;;1.83;;
5149;SDS011;2593;52.466;13.436;2023-02-21T09:57:04;1.30;;;1.20;;
5149;SDS011;2593;52.466;13.436;2023-02-21T09:59:33;3.30;;;1.80;;
5149;SDS011;2593;52.466;13.436;2023-02-21T10:12:57;7.30;;;1.47;;
5149;SDS011;2593;52.466;13.436;2023-02-21T10:15:35;8.57;;;2.50;;
5149;SDS011;2593;52.466;13.436;2023-02-21T10:20:58;2.50;;;1.23;;
5149;SDS011;2593;52.466;13.436;2023-02-21T10:23:36;11.43;;;2.10;;
5149;SDS011;2593;52.466;13.436;2023-02-21T10:26:09;7.93;;;1.67;;
5149;SDS011;2593;52.466;13.436;2023-02-21T10:28:38;5.43;;;1.30;;
5149;SDS011;2593;52.466;13.436;2023-02-21T10:31:15;4.20;;;1.40;;
5149;SDS011;2593;52.466;13.436;2023-02-21T10:34:03;8.60;;;1.53;;
5149;SDS011;2593;52.466;13.436;2023-02-21T10:36:31;4.20;;;1.67;;
5149;SDS011;2593;52.466;13.436;2023-02-21T10:39:03;2.20;;;1.47;;
5149;SDS011;2593;52.466;13.436;2023-02-21T10:41:33;3.80;;;1.50;;
5149;SDS011;2593;52.466;13.436;2023-02-21T10:44:04;2.40;;;1.37;;
5149;SDS011;2593;52.466;13.436;2023-02-21T10:46:38;4.20;;;1.20;;
5149;SDS011;2593;52.466;13.436;2023-02-21T10:51:42;5.70;;;1.40;;
5149;SDS011;2593;52.466;13.436;2023-02-21T10:54:18;5.23;;;1.07;;
5149;SDS011;2593;52.466;13.436;2023-02-21T10:56:46;2.33;;;1.40;;
5149;SDS011;2593;52.466;13.436;2023-02-21T10:59:27;3.37;;;1.73;;
5149;SDS011;2593;52.466;13.436;2023-02-21T11:01:56;4.17;;;1.10;;
5149;SDS011;2593;52.466;13.436;2023-02-21T11:04:24;17.43;;;2.73;;
5149;SDS011;2593;52.466;13.436;2023-02-21T11:12:03;3.73;;;1.10;;
5149;SDS011;2593;52.466;13.436;2023-02-21T11:14:29;5.43;;;1.17;;
5149;SDS011;2593;52.466;13.436;2023-02-21T11:17:06;10.03;;;1.20;;
5149;SDS011;2593;52.466;13.436;2023-02-21T11:19:53;8.97;;;2.07;;
5149;SDS011;2593;52.466;13.436;2023-02-21T11:25:07;4.90;;;1.40;;
5149;SDS011;2593;52.466;13.436;2023-02-21T11:27:57;6.50;;;1.70;;
5149;SDS011;2593;52.466;13.436;2023-02-21T11:30:25;3.13;;;0.97;;
5149;SDS011;2593;52.466;13.436;2023-02-21T11:32:51;4.80;;;1.50;;
5149;SDS011;2593;52.466;13.436;2023-02-21T11:35:27;3.43;;;1.10;;
5149;SDS011;2593;52.466;13.436;2023-02-21T11:43:18;9.77;;;1.43;;
5149;SDS011;2593;52.466;13.436;2023-02-21T11:51:43;7.70;;;2.27;;
5149;SDS011;2593;52.466;13.436;2023-02-21T11:54:22;4.90;;;1.30;;
5149;SDS011;2593;52.466;13.436;2023-02-21T11:56:51;4.90;;;2.20;;
5149;SDS011;2593;52.466;13.436;2023-02-21T12:02:26;8.47;;;1.67;;
5149;SDS011;2593;52.466;13.436;2023-02-21T12:07:43;9.53;;;2.67;;
5149;SDS011;2593;52.466;13.436;2023-02-21T12:18:48;6.20;;;1.57;;
5149;SDS011;2593;52.466;13.436;2023-02-21T12:24:19;19.00;;;2.73;;
5149;SDS011;2593;52.466;13.436;2023-02-21T12:26:57;14.73;;;4.50;;
5149;SDS011;2593;52.466;13.436;2023-02-21T12:29:31;14.93;;;2.93;;
5149;SDS011;2593;52.466;13.436;2023-02-21T12:38:06;8.70;;;2.50;;
5149;SDS011;2593;52.466;13.436;2023-02-21T12:43:37;8.63;;;1.60;;
5149;SDS011;2593;52.466;13.436;2023-02-21T12:57:13;10.57;;;1.60;;
5149;SDS011;2593;52.466;13.436;2023-02-21T12:59:49;7.13;;;1.70;;
5149;SDS011;2593;52.466;13.436;2023-02-21T13:02:29;10.97;;;4.00;;
5149;SDS011;2593;52.466;13.436;2023-02-21T13:05:18;12.73;;;2.17;;
5149;SDS011;2593;52.466;13.436;2023-02-21T13:07:55;14.20;;;3.00;;
5149;SDS011;2593;52.466;13.436;2023-02-21T13:10:30;12.60;;;3.23;;
5149;SDS011;2593;52.466;13.436;2023-02-21T13:15:48;8.77;;;1.80;;
5149;SDS011;2593;52.466;13.436;2023-02-21T13:18:23;11.27;;;2.53;;
5149;SDS011;2593;52.466;13.436;2023-02-21T13:20:57;10.77;;;2.87;;
5149;SDS011;2593;52.466;13.436;2023-02-21T13:23:32;13.10;;;2.13;;
5149;SDS011;2593;52.466;13.436;2023-02-21T13:28:57;27.40;;;6.13;;
5149;SDS011;2593;52.466;13.436;2023-02-21T13:31:24;24.43;;;5.40;;
5149;SDS011;2593;52.466;13.436;2023-02-21T13:33:55;13.43;;;4.37;;
5149;SDS011;2593;52.466;13.436;2023-02-21T13:36:26;25.97;;;5.60;;
5149;SDS011;2593;52.466;13.436;2023-02-21T13:42:00;15.70;;;3.17;;
5149;SDS011;2593;52.466;13.436;2023-02-21T13:47:07;30.07;;;5.13;;
5149;SDS011;2593;52.466;13.436;2023-02-21T13:49:44;31.70;;;9.03;;
5149;SDS011;2593;52.466;13.436;2023-02-21T13:57:34;22.17;;;2.83;;
5149;SDS011;2593;52.466;13.436;2023-02-21T14:10:51;18.83;;;7.00;;
5149;SDS011;2593;52.466;13.436;2023-02-21T14:13:38;14.70;;;3.70;;
5149;SDS011;2593;52.466;13.436;2023-02-21T14:21:24;16.80;;;4.73;;
5149;SDS011;2593;52.466;13.436;2023-02-21T14:23:55;12.57;;;2.90;;
5149;SDS011;2593;52.466;13.436;2023-02-21T14:26:37;35.10;;;7.70;;
5149;SDS011;2593;52.466;13.436;2023-02-21T14:31:51;18.53;;;4.20;;
5149;SDS011;2593;52.466;13.436;2023-02-21T14:37:01;24.60;;;3.97;;
5149;SDS011;2593;52.466;13.436;2023-02-21T14:40:26;12.90;;;4.27;;
5149;SDS011;2593;52.466;13.436;2023-02-21T14:48:25;23.97;;;3.90;;
5149;SDS011;2593;52.466;13.436;2023-02-21T15:00:18;23.77;;;2.63;;
5149;SDS011;2593;52.466;13.436;2023-02-21T15:03:21;20.73;;;3.60;;
5149;SDS011;2593;52.466;13.436;2023-02-21T15:05:59;16.77;;;3.37;;
5149;SDS011;2593;52.466;13.436;2023-02-21T15:08:38;23.27;;;3.97;;
5149;SDS011;2593;52.466;13.436;2023-02-21T15:11:23;32.23;;;6.40;;
5149;SDS011;2593;52.466;13.436;2023-02-21T15:14:12;19.00;;;3.67;;
5149;SDS011;2593;52.466;13.436;2023-02-21T15:16:39;17.53;;;3.87;;
5149;SDS011;2593;52.466;13.436;2023-02-21T15:19:24;30.40;;;2.47;;
5149;SDS011;2593;52.466;13.436;2023-02-21T15:30:20;25.33;;;2.93;;
5149;SDS011;2593;52.466;13.436;2023-02-21T15:32:59;15.47;;;2.27;;
5149;SDS011;2593;52.466;13.436;2023-02-21T15:35:32;10.67;;;2.70;;
5149;SDS011;2593;52.466;13.436;2023-02-21T15:38:06;32.80;;;3.77;;
5149;SDS011;2593;52.466;13.436;2023-02-21T15:40:41;16.43;;;3.10;;
5149;SDS011;2593;52.466;13.436;2023-02-21T15:43:09;18.30;;;3.20;;
5149;SDS011;2593;52.466;13.436;2023-02-21T15:45:52;23.10;;;4.33;;
5149;SDS011;2593;52.466;13.436;2023-02-21T15:48:20;14.00;;;3.67;;
5149;SDS011;2593;52.466;13.436;2023-02-21T15:50:46;12.87;;;3.23;;
5149;SDS011;2593;52.466;13.436;2023-02-21T15:53:17;16.77;;;3.60;;
5149;SDS011;2593;52.466;13.436;2023-02-21T15:55:46;9.97;;;2.53;;
5149;SDS011;2593;52.466;13.436;2023-02-21T16:01:02;17.00;;;2.50;;
5149;SDS011;2593;52.466;13.436;2023-02-21T16:06:08;25.03;;;5.03;;
5149;SDS011;2593;52.466;13.436;2023-02-21T16:08:49;12.70;;;3.47;;
5149;SDS011;2593;52.466;13.436;2023-02-21T16:11:15;26.63;;;4.07;;
5149;SDS011;2593;52.466;13.436;2023-02-21T16:13:41;27.50;;;3.10;;
5149;SDS011;2593;52.466;13.436;2023-02-21T16:16:07;20.93;;;3.10;;
5149;SDS011;2593;52.466;13.436;2023-02-21T16:18:34;20.87;;;4.00;;
5149;SDS011;2593;52.466;13.436;2023-02-21T16:21:01;34.20;;;4.10;;
5149;SDS011;2593;52.466;13.436;2023-02-21T16:23:37;18.53;;;4.47;;
5149;SDS011;2593;52.466;13.436;2023-02-21T16:28:33;19.03;;;4.20;;
5149;SDS011;2593;52.466;13.436;2023-02-21T16:31:01;11.30;;;3.50;;
5149;SDS011;2593;52.466;13.436;2023-02-21T16:33:29;19.10;;;3.20;;
5149;SDS011;2593;52.466;13.436;2023-02-21T16:35:57;27.60;;;4.60;;
5149;SDS011;2593;52.466;13.436;2023-02-21T16:38:24;14.60;;;4.00;;
5149;SDS011;2593;52.466;13.436;2023-02-21T16:40:51;32.43;;;5.57;;
5149;SDS011;2593;52.466;13.436;2023-02-21T16:43:22;23.60;;;4.10;;
5149;SDS011;2593;52.466;13.436;2023-02-21T16:45:50;12.73;;;2.57;;
5149;SDS011;2593;52.466;13.436;2023-02-21T16:48:19;21.80;;;5.07;;
5149;SDS011;2593;52.466;13.436;2023-02-21T16:50:48;16.33;;;3.70;;
5149;SDS011;2593;52.466;13.436;2023-02-21T16:53:14;14.10;;;3.50;;
5149;SDS011;2593;52.466;13.436;2023-02-21T16:55:41;10.23;;;2.83;;
5149;SDS011;2593;52.466;13.436;2023-02-21T16:58:10;15.50;;;3.00;;
5149;SDS011;2593;52.466;13.436;2023-02-21T17:00:52;13.70;;;3.87;;
5149;SDS011;2593;52.466;13.436;2023-02-21T17:03:23;18.60;;;3.77;;
5149;SDS011;2593;52.466;13.436;2023-02-21T17:05:49;31.97;;;4.90;;
5149;SDS011;2593;52.466;13.436;2023-02-21T17:08:16;16.40;;;4.37;;
5149;SDS011;2593;52.466;13.436;2023-02-21T17:10:42;17.43;;;4.47;;
5149;SDS011;2593;52.466;13.436;2023-02-21T17:13:08;37.90;;;5.00;;
5149;SDS011;2593;52.466;13.436;2023-02-21T17:15:34;30.43;;;4.67;;
5149;SDS011;2593;52.466;13.436;2023-02-21T17:18:00;21.60;;;4.90;;
5149;SDS011;2593;52.466;13.436;2023-02-21T17:20:26;13.73;;;4.33;;
5149;SDS011;2593;52.466;13.436;2023-02-21T17:22:52;19.13;;;4.83;;
5149;SDS011;2593;52.466;13.436;2023-02-21T17:25:19;28.93;;;4.73;;
5149;SDS011;2593;52.466;13.436;2023-02-21T17:27:46;24.33;;;5.87;;
5149;SDS011;2593;52.466;13.436;2023-02-21T17:30:13;23.63;;;5.40;;
5149;SDS011;2593;52.466;13.436;2023-02-21T17:32:39;20.07;;;6.07;;
5149;SDS011;2593;52.466;13.436;2023-02-21T17:35:05;28.27;;;6.60;;
5149;SDS011;2593;52.466;13.436;2023-02-21T17:37:31;19.00;;;4.97;;
5149;SDS011;2593;52.466;13.436;2023-02-21T17:39:57;22.40;;;4.50;;
5149;SDS011;2593;52.466;13.436;2023-02-21T17:42:23;32.17;;;5.40;;
5149;SDS011;2593;52.466;13.436;2023-02-21T17:44:49;27.70;;;5.00;;
5149;SDS011;2593;52.466;13.436;2023-02-21T17:47:19;15.83;;;5.13;;
5149;SDS011;2593;52.466;13.436;2023-02-21T17:49:47;17.80;;;4.63;;
5149;SDS011;2593;52.466;13.436;2023-02-21T17:52:13;27.07;;;6.23;;
5149;SDS011;2593;52.466;13.436;2023-02-21T17:54:39;29.80;;;5.43;;
5149;SDS011;2593;52.466;13.436;2023-02-21T17:57:05;15.07;;;4.00;;
5149;SDS011;2593;52.466;13.436;2023-02-21T17:59:33;24.90;;;5.70;;
5149;SDS011;2593;52.466;13.436;2023-02-21T18:01:59;26.60;;;5.70;;
5149;SDS011;2593;52.466;13.436;2023-02-21T18:04:25;28.57;;;4.80;;
5149;SDS011;2593;52.466;13.436;2023-02-21T18:06:50;22.50;;;4.27;;
5149;SDS011;2593;52.466;13.436;2023-02-21T18:09:16;29.33;;;5.23;;
5149;SDS011;2593;52.466;13.436;2023-02-21T18:11:49;20.30;;;4.67;;
5149;SDS011;2593;52.466;13.436;2023-02-21T18:14:16;25.17;;;5.17;;
5149;SDS011;2593;52.466;13.436;2023-02-21T18:16:42;13.20;;;4.87;;